Time;durP1;ratioP1;P1;durP2;ratioP2;P2;SDS_P1;SDS_P2;PMS_P1;PMS_P2;Temp;Humidity;BMP_temperature;BMP_pressure;BME280_temperature;BME280_humidity;BME280_pressure;Samples;Min_cycle;Max_cycle;Signal;HPM_P1;HPM_P2
2022/09/19 00:01:45;;;;;;;;;;;;;;;;;;5094911;28;19916;-80
2022/09/19 00:04:26;;;;;;;;;;;;;;;;;;5092763;28;19916;-80
2022/09/19 00:06:54;;;;;;;;;;;;;;;;;;5077598;28;19938;-80
2022/09/19 00:12:51;;;;;;;;;;;;;;;;;;5094987;28;19939;-80
2022/09/19 00:18:33;;;;;;;;;;;;;;;;;;5127461;22;19924;-80
2022/09/19 00:21:19;;;;;;;;;;;;;;;;;;5101151;28;19973;-80
2022/09/19 00:26:35;;;;;;;;;;;;;;;;;;5119014;28;19965;-81
2022/09/19 00:29:03;;;;;;;;;;;;;;;;;;5119238;28;19915;-80
2022/09/19 00:34:12;;;;;;;;;;;;;;;;;;5338397;22;19974;-81
2022/09/19 00:37:02;;;;;;;;;;;;;;;;;;5043783;28;19924;-80
2022/09/19 00:39:33;;;;;;;;;;;;;;;;;;5062032;28;20015;-81
2022/09/19 00:42:19;;;;;;;;;;;;;;;;;;5079162;28;19916;-80
2022/09/19 00:48:15;;;;;;;;;;;;;;;;;;5086060;22;19931;-78
2022/09/19 00:50:41;;;;;;;;;;;;;;;;;;5061983;28;20241;-81
2022/09/19 00:55:45;;;;;;;;;;;;;;;;;;5204372;22;19953;-86
2022/09/19 00:58:45;;;;;;;;;;;;;;;;;;5076233;28;19983;-86
2022/09/19 01:06:52;;;;;;;;;;;;;;;;;;5098186;28;19969;-85
2022/09/19 01:12:05;;;;;;;;;;;;;;;;;;5096792;28;19924;-80
2022/09/19 01:15:03;;;;;;;;;;;;;;;;;;5079705;28;20006;-80
2022/09/19 01:17:58;;;;;;;;;;;;;;;;;;5097357;28;19923;-80
2022/09/19 01:20:58;;;;;;;;;;;;;;;;;;5086632;28;19916;-80
2022/09/19 01:23:43;;;;;;;;;;;;;;;;;;5079853;28;19916;-80
2022/09/19 01:29:50;;;;;;;;;;;;;;;;;;4998907;28;19997;-80
2022/09/19 01:32:18;;;;;;;;;;;;;;;;;;5081807;28;19927;-80
2022/09/19 01:34:49;;;;;;;;;;;;;;;;;;5103661;28;19917;-82
2022/09/19 01:37:27;;;;;;;;;;;;;;;;;;5084438;28;19916;-82
2022/09/19 01:39:53;;;;;;;;;;;;;;;;;;5100819;28;19911;-80
2022/09/19 01:42:19;;;;;;;;;;;;;;;;;;5116723;28;19916;-79
2022/09/19 01:44:44;;;;;;;;;;;;;;;;;;5117257;28;19916;-80
2022/09/19 01:47:13;;;;;;;;;;;;;;;;;;5116620;28;19995;-81
2022/09/19 01:49:47;;;;;;;;;;;;;;;;;;5107848;28;19916;-80
2022/09/19 01:52:19;;;;;;;;;;;;;;;;;;5096523;28;19923;-81
2022/09/19 01:55:03;;;;;;;;;;;;;;;;;;5078312;28;20314;-81
2022/09/19 01:57:31;;;;;;;;;;;;;;;;;;5096339;28;19927;-79
2022/09/19 02:00:15;;;;;;;;;;;;;;;;;;5096072;28;19955;-81
2022/09/19 02:02:47;;;;;;;;;;;;;;;;;;5078151;28;19965;-80
2022/09/19 02:05:25;;;;;;;;;;;;;;;;;;5078256;28;20257;-80
2022/09/19 02:07:59;;;;;;;;;;;;;;;;;;5077942;28;19982;-80
2022/09/19 02:10:29;;;;;;;;;;;;;;;;;;5095925;28;19927;-80
2022/09/19 02:12:55;;;;;;;;;;;;;;;;;;5078029;28;20336;-79
2022/09/19 02:15:23;;;;;;;;;;;;;;;;;;5077893;28;20048;-81
2022/09/19 02:17:51;;;;;;;;;;;;;;;;;;5078161;28;19932;-81
2022/09/19 02:20:22;;;;;;;;;;;;;;;;;;5096029;28;19916;-80
2022/09/19 02:22:48;;;;;;;;;;;;;;;;;;5095780;28;19916;-80
2022/09/19 02:25:15;;;;;;;;;;;;;;;;;;5061080;28;20027;-80
2022/09/19 02:27:49;;;;;;;;;;;;;;;;;;5095853;28;20025;-80
2022/09/19 02:30:15;;;;;;;;;;;;;;;;;;5077982;28;19912;-80
2022/09/19 02:32:46;;;;;;;;;;;;;;;;;;5077593;28;19923;-80
2022/09/19 02:35:13;;;;;;;;;;;;;;;;;;5095876;28;19912;-80
2022/09/19 02:37:54;;;;;;;;;;;;;;;;;;5095455;28;19955;-80
2022/09/19 02:40:24;;;;;;;;;;;;;;;;;;5078822;28;20244;-80
2022/09/19 02:42:56;;;;;;;;;;;;;;;;;;5077420;28;20257;-80
2022/09/19 02:45:29;;;;;;;;;;;;;;;;;;5095022;28;19916;-80
2022/09/19 02:48:03;;;;;;;;;;;;;;;;;;5060907;28;20386;-80
2022/09/19 02:50:32;;;;;;;;;;;;;;;;;;5095525;28;19916;-80
2022/09/19 02:52:58;;;;;;;;;;;;;;;;;;5077435;28;20304;-80
2022/09/19 02:55:27;;;;;;;;;;;;;;;;;;5077179;28;19916;-80
2022/09/19 02:57:54;;;;;;;;;;;;;;;;;;5076904;28;19927;-80
2022/09/19 03:00:21;;;;;;;;;;;;;;;;;;5077030;28;19920;-80
2022/09/19 03:02:56;;;;;;;;;;;;;;;;;;5095210;28;19916;-81
2022/09/19 03:05:22;;;;;;;;;;;;;;;;;;5077461;28;19919;-80
2022/09/19 03:07:56;;;;;;;;;;;;;;;;;;5060534;28;19966;-80
2022/09/19 03:10:22;;;;;;;;;;;;;;;;;;5094910;28;19920;-80
2022/09/19 03:12:50;;;;;;;;;;;;;;;;;;5076695;28;19916;-80
2022/09/19 03:15:20;;;;;;;;;;;;;;;;;;5077093;28;20007;-79
2022/09/19 03:17:49;;;;;;;;;;;;;;;;;;5077490;28;20026;-80
2022/09/19 03:20:15;;;;;;;;;;;;;;;;;;5060743;28;20321;-80
2022/09/19 03:22:40;;;;;;;;;;;;;;;;;;5076826;28;19916;-80
2022/09/19 03:25:06;;;;;;;;;;;;;;;;;;5076756;28;19986;-80
2022/09/19 03:27:32;;;;;;;;;;;;;;;;;;5059695;28;19917;-80
2022/09/19 03:29:57;;;;;;;;;;;;;;;;;;5060190;28;20015;-80
2022/09/19 03:32:26;;;;;;;;;;;;;;;;;;5094801;28;19923;-80
2022/09/19 03:34:55;;;;;;;;;;;;;;;;;;5077300;28;19924;-80
2022/09/19 03:37:21;;;;;;;;;;;;;;;;;;5094572;28;20039;-80
2022/09/19 03:39:46;;;;;;;;;;;;;;;;;;5060099;28;20002;-80
2022/09/19 03:42:12;;;;;;;;;;;;;;;;;;5094940;28;20378;-80
2022/09/19 03:44:38;;;;;;;;;;;;;;;;;;5094461;28;19916;-80
2022/09/19 03:47:04;;;;;;;;;;;;;;;;;;5094471;28;19923;-80
2022/09/19 03:49:30;;;;;;;;;;;;;;;;;;5094796;28;19973;-80
2022/09/19 03:51:56;;;;;;;;;;;;;;;;;;5080270;28;19916;-80
2022/09/19 03:54:21;;;;;;;;;;;;;;;;;;5080590;28;20344;-80
2022/09/19 03:56:46;;;;;;;;;;;;;;;;;;5098358;28;19916;-79
2022/09/19 03:59:12;;;;;;;;;;;;;;;;;;5080475;28;20376;-80
2022/09/19 04:01:37;;;;;;;;;;;;;;;;;;5063816;28;20241;-80
2022/09/19 04:04:04;;;;;;;;;;;;;;;;;;5080351;28;19916;-80
2022/09/19 04:06:29;;;;;;;;;;;;;;;;;;5098659;28;19916;-80
2022/09/19 04:08:55;;;;;;;;;;;;;;;;;;5098844;28;19919;-80
2022/09/19 04:11:20;;;;;;;;;;;;;;;;;;5097953;28;19920;-80
2022/09/19 04:13:48;;;;;;;;;;;;;;;;;;5080295;28;20325;-80
2022/09/19 04:16:17;;;;;;;;;;;;;;;;;;5098227;28;20326;-79
2022/09/19 04:18:47;;;;;;;;;;;;;;;;;;5098223;28;19923;-79
2022/09/19 04:21:13;;;;;;;;;;;;;;;;;;5080741;28;19974;-78
2022/09/19 04:23:38;;;;;;;;;;;;;;;;;;5079982;28;19916;-78
2022/09/19 04:26:04;;;;;;;;;;;;;;;;;;5097900;28;19916;-80
2022/09/19 04:28:30;;;;;;;;;;;;;;;;;;5097937;28;20000;-80
2022/09/19 04:30:55;;;;;;;;;;;;;;;;;;5080027;28;19916;-79
2022/09/19 04:33:22;;;;;;;;;;;;;;;;;;5062857;28;19993;-78
2022/09/19 04:35:47;;;;;;;;;;;;;;;;;;5096880;28;19917;-80
2022/09/19 04:38:17;;;;;;;;;;;;;;;;;;5062763;28;19923;-78
2022/09/19 04:40:47;;;;;;;;;;;;;;;;;;5065908;28;19916;-79
2022/09/19 04:43:15;;;;;;;;;;;;;;;;;;5085147;28;19916;-79
2022/09/19 04:45:44;;;;;;;;;;;;;;;;;;5081282;28;19935;-79
2022/09/19 04:48:11;;;;;;;;;;;;;;;;;;5095372;28;19923;-79
2022/09/19 04:50:37;;;;;;;;;;;;;;;;;;5098850;28;20025;-78
2022/09/19 04:53:03;;;;;;;;;;;;;;;;;;5073748;28;19938;-77
2022/09/19 04:55:31;;;;;;;;;;;;;;;;;;5081261;28;19917;-79
2022/09/19 04:57:57;;;;;;;;;;;;;;;;;;5095953;28;19999;-80
2022/09/19 05:00:38;;;;;;;;;;;;;;;;;;5085840;28;20348;-78
2022/09/19 05:03:09;;;;;;;;;;;;;;;;;;5089598;28;20350;-81
2022/09/19 05:05:37;;;;;;;;;;;;;;;;;;5086481;28;19949;-78
2022/09/19 05:08:04;;;;;;;;;;;;;;;;;;5086129;28;19998;-78
2022/09/19 05:10:31;;;;;;;;;;;;;;;;;;5074074;28;19924;-79
2022/09/19 05:12:57;;;;;;;;;;;;;;;;;;5067497;28;20506;-80
2022/09/19 05:15:24;;;;;;;;;;;;;;;;;;5077591;28;19912;-78
2022/09/19 05:17:53;;;;;;;;;;;;;;;;;;5094637;28;19923;-79
2022/09/19 05:20:19;;;;;;;;;;;;;;;;;;5093213;28;19924;-79
2022/09/19 05:22:47;;;;;;;;;;;;;;;;;;5095669;28;20243;-79
2022/09/19 05:25:16;;;;;;;;;;;;;;;;;;5086562;28;19927;-79
2022/09/19 05:27:42;;;;;;;;;;;;;;;;;;5072044;28;19920;-80
2022/09/19 05:30:10;;;;;;;;;;;;;;;;;;5065405;28;19920;-81
2022/09/19 05:32:40;;;;;;;;;;;;;;;;;;5096519;28;20370;-80
2022/09/19 05:35:06;;;;;;;;;;;;;;;;;;5094923;28;19997;-78
2022/09/19 05:37:34;;;;;;;;;;;;;;;;;;5093529;28;20368;-81
2022/09/19 05:40:00;;;;;;;;;;;;;;;;;;5090944;28;20343;-79
2022/09/19 05:42:25;;;;;;;;;;;;;;;;;;5078122;28;19920;-79
2022/09/19 05:44:54;;;;;;;;;;;;;;;;;;5087948;28;19924;-79
2022/09/19 05:47:20;;;;;;;;;;;;;;;;;;5069105;28;19932;-80
2022/09/19 05:49:45;;;;;;;;;;;;;;;;;;5076942;28;19968;-79
2022/09/19 05:54:55;;;;;;;;;;;;;;;;;;5097004;28;19989;-79
2022/09/19 05:57:21;;;;;;;;;;;;;;;;;;5094402;28;19955;-79
2022/09/19 05:59:46;;;;;;;;;;;;;;;;;;5094997;28;19936;-82
2022/09/19 06:02:12;;;;;;;;;;;;;;;;;;5092725;28;19962;-79
2022/09/19 06:04:37;;;;;;;;;;;;;;;;;;5088076;28;19931;-83
2022/09/19 06:07:08;;;;;;;;;;;;;;;;;;5094945;28;19924;-88
2022/09/19 06:09:34;;;;;;;;;;;;;;;;;;5076174;28;19920;-83
2022/09/19 06:11:59;;;;;;;;;;;;;;;;;;5093055;28;19920;-80
2022/09/19 06:14:28;;;;;;;;;;;;;;;;;;5089353;28;19923;-78
2022/09/19 06:16:53;;;;;;;;;;;;;;;;;;5074631;28;19970;-79
2022/09/19 06:19:19;;;;;;;;;;;;;;;;;;5093066;28;19924;-80
2022/09/19 06:21:44;;;;;;;;;;;;;;;;;;5093030;28;19920;-77
2022/09/19 06:24:10;;;;;;;;;;;;;;;;;;5087026;28;19931;-78
2022/09/19 06:26:35;;;;;;;;;;;;;;;;;;5089531;28;19966;-78
2022/09/19 06:29:03;;;;;;;;;;;;;;;;;;5089774;28;19924;-79
2022/09/19 06:31:29;;;;;;;;;;;;;;;;;;5089001;28;19928;-77
2022/09/19 06:33:54;;;;;;;;;;;;;;;;;;5092254;28;19969;-78
2022/09/19 06:36:22;;;;;;;;;;;;;;;;;;5090513;28;19955;-77
2022/09/19 06:38:48;;;;;;;;;;;;;;;;;;5075655;28;20013;-76
2022/09/19 06:41:14;;;;;;;;;;;;;;;;;;5092886;28;19916;-78
2022/09/19 06:43:39;;;;;;;;;;;;;;;;;;5072375;28;19920;-77
2022/09/19 06:46:04;;;;;;;;;;;;;;;;;;5097028;28;19969;-79
2022/09/19 06:48:30;;;;;;;;;;;;;;;;;;5063363;28;19924;-77
2022/09/19 06:50:55;;;;;;;;;;;;;;;;;;5089107;28;20008;-76
2022/09/19 06:53:21;;;;;;;;;;;;;;;;;;5095033;28;19991;-77
2022/09/19 06:55:46;;;;;;;;;;;;;;;;;;5087345;28;19920;-79
2022/09/19 06:58:12;;;;;;;;;;;;;;;;;;5075737;28;19920;-77
2022/09/19 07:00:38;;;;;;;;;;;;;;;;;;5087990;28;20332;-78
2022/09/19 07:03:29;;;;;;;;;;;;;;;;;;5088863;28;19920;-79
2022/09/19 07:05:59;;;;;;;;;;;;;;;;;;5071105;28;19927;-78
2022/09/19 07:08:24;;;;;;;;;;;;;;;;;;5058406;28;19947;-78
2022/09/19 07:10:50;;;;;;;;;;;;;;;;;;5096130;28;19920;-78
2022/09/19 07:13:16;;;;;;;;;;;;;;;;;;5074936;28;19948;-79
2022/09/19 07:15:41;;;;;;;;;;;;;;;;;;5090787;28;19920;-78
2022/09/19 07:18:16;;;;;;;;;;;;;;;;;;5073002;28;19920;-78
2022/09/19 07:20:41;;;;;;;;;;;;;;;;;;5094598;28;19921;-77
2022/09/19 07:23:10;;;;;;;;;;;;;;;;;;5093896;28;19942;-78
2022/09/19 07:25:37;;;;;;;;;;;;;;;;;;5079953;28;20278;-79
2022/09/19 07:28:03;;;;;;;;;;;;;;;;;;5078818;28;19927;-77
2022/09/19 07:30:28;;;;;;;;;;;;;;;;;;5096737;28;19916;-79
2022/09/19 07:32:55;;;;;;;;;;;;;;;;;;5092397;28;19927;-78
2022/09/19 07:35:20;;;;;;;;;;;;;;;;;;5073376;28;19916;-76
2022/09/19 07:37:49;;;;;;;;;;;;;;;;;;5069367;28;19921;-78
2022/09/19 07:40:15;;;;;;;;;;;;;;;;;;5080754;28;19928;-78
2022/09/19 07:42:40;;;;;;;;;;;;;;;;;;5087056;28;20001;-79
2022/09/19 07:45:06;;;;;;;;;;;;;;;;;;5087921;28;20084;-79
2022/09/19 07:47:32;;;;;;;;;;;;;;;;;;5087445;28;20330;-79
2022/09/19 07:49:58;;;;;;;;;;;;;;;;;;5086953;28;20468;-78
2022/09/19 07:52:23;;;;;;;;;;;;;;;;;;5088929;28;19955;-78
2022/09/19 07:54:49;;;;;;;;;;;;;;;;;;5088889;28;19999;-78
2022/09/19 07:57:15;;;;;;;;;;;;;;;;;;5087356;28;20346;-78
2022/09/19 07:59:47;;;;;;;;;;;;;;;;;;5086161;28;19916;-79
2022/09/19 08:02:15;;;;;;;;;;;;;;;;;;5070228;28;19924;-79
2022/09/19 08:04:40;;;;;;;;;;;;;;;;;;5086647;28;20414;-76
2022/09/19 08:07:06;;;;;;;;;;;;;;;;;;5086631;28;20014;-80
2022/09/19 08:09:31;;;;;;;;;;;;;;;;;;5085691;28;19920;-78
2022/09/19 08:12:00;;;;;;;;;;;;;;;;;;5089607;28;19931;-76
2022/09/19 08:14:25;;;;;;;;;;;;;;;;;;5089174;28;19981;-77
2022/09/19 08:16:50;;;;;;;;;;;;;;;;;;5066762;28;19955;-74
2022/09/19 08:19:16;;;;;;;;;;;;;;;;;;5090165;28;19920;-76
2022/09/19 08:21:41;;;;;;;;;;;;;;;;;;5086539;28;20496;-74
2022/09/19 08:24:07;;;;;;;;;;;;;;;;;;5085011;28;20231;-77
2022/09/19 08:26:33;;;;;;;;;;;;;;;;;;5080729;28;19931;-78
2022/09/19 08:28:58;;;;;;;;;;;;;;;;;;5084017;28;19921;-76
2022/09/19 08:31:24;;;;;;;;;;;;;;;;;;5051439;28;19920;-78
2022/09/19 08:33:50;;;;;;;;;;;;;;;;;;5087001;28;20242;-77
2022/09/19 08:36:16;;;;;;;;;;;;;;;;;;5090694;28;19920;-76
2022/09/19 08:38:42;;;;;;;;;;;;;;;;;;5095611;28;20025;-77
2022/09/19 08:41:13;;;;;;;;;;;;;;;;;;5081667;28;20395;-76
2022/09/19 08:43:58;;;;;;;;;;;;;;;;;;5094384;28;19920;-78
2022/09/19 08:46:28;;;;;;;;;;;;;;;;;;5077179;28;19920;-77
2022/09/19 08:48:53;;;;;;;;;;;;;;;;;;5075561;28;20046;-77
2022/09/19 08:51:19;;;;;;;;;;;;;;;;;;5089326;28;20007;-74
2022/09/19 08:53:45;;;;;;;;;;;;;;;;;;5085351;28;19989;-74
2022/09/19 08:56:11;;;;;;;;;;;;;;;;;;5071022;28;19920;-75
2022/09/19 08:58:37;;;;;;;;;;;;;;;;;;5063016;28;19920;-74
2022/09/19 09:01:03;;;;;;;;;;;;;;;;;;5085192;28;19931;-76
2022/09/19 09:03:41;;;;;;;;;;;;;;;;;;5070325;28;20416;-73
2022/09/19 09:06:10;;;;;;;;;;;;;;;;;;5068213;28;20035;-73
2022/09/19 09:08:53;;;;;;;;;;;;;;;;;;5087699;28;19916;-75
2022/09/19 09:11:38;;;;;;;;;;;;;;;;;;5084117;28;20565;-74
2022/09/19 09:14:06;;;;;;;;;;;;;;;;;;5088049;28;19923;-77
2022/09/19 09:16:45;;;;;;;;;;;;;;;;;;5086044;28;19924;-75
2022/09/19 09:19:29;;;;;;;;;;;;;;;;;;5070004;28;20380;-76
2022/09/19 09:22:09;;;;;;;;;;;;;;;;;;5089849;28;19977;-76
2022/09/19 09:24:55;;;;;;;;;;;;;;;;;;5089781;28;19973;-75
2022/09/19 09:27:21;;;;;;;;;;;;;;;;;;5091340;28;19927;-80
2022/09/19 09:29:49;;;;;;;;;;;;;;;;;;5095734;28;20006;-85
2022/09/19 09:32:30;;;;;;;;;;;;;;;;;;5099314;28;20025;-82
2022/09/19 09:35:06;;;;;;;;;;;;;;;;;;5087315;28;19935;-81
2022/09/19 09:37:40;;;;;;;;;;;;;;;;;;5074709;28;19920;-79
2022/09/19 09:40:13;;;;;;;;;;;;;;;;;;5073228;28;19924;-77
2022/09/19 09:42:43;;;;;;;;;;;;;;;;;;5069629;28;20210;-78
2022/09/19 09:45:13;;;;;;;;;;;;;;;;;;5089169;28;19935;-79
2022/09/19 09:47:44;;;;;;;;;;;;;;;;;;5052397;28;20276;-78
2022/09/19 09:50:31;;;;;;;;;;;;;;;;;;5074594;28;20324;-78
2022/09/19 09:53:01;;;;;;;;;;;;;;;;;;5073425;28;19934;-77
2022/09/19 09:58:23;;;;;;;;;;;;;;;;;;5077151;28;20574;-79
2022/09/19 10:03:44;;;;;;;;;;;;;;;;;;5086209;28;19973;-78
2022/09/19 10:06:29;;;;;;;;;;;;;;;;;;5090450;28;19939;-79
2022/09/19 10:09:06;;;;;;;;;;;;;;;;;;5090213;28;19916;-78
2022/09/19 10:11:40;;;;;;;;;;;;;;;;;;5079067;28;19924;-79
2022/09/19 10:14:28;;;;;;;;;;;;;;;;;;5054118;28;20015;-75
2022/09/19 10:16:56;;;;;;;;;;;;;;;;;;5070980;28;19920;-79
2022/09/19 10:19:25;;;;;;;;;;;;;;;;;;5075586;28;19977;-79
2022/09/19 10:21:51;;;;;;;;;;;;;;;;;;5075159;28;19935;-79
2022/09/19 10:24:37;;;;;;;;;;;;;;;;;;5097205;28;19923;-78
2022/09/19 10:27:11;;;;;;;;;;;;;;;;;;5081149;28;19920;-79
2022/09/19 10:29:37;;;;;;;;;;;;;;;;;;5073307;28;19923;-80
2022/09/19 10:32:35;;;;;;;;;;;;;;;;;;5099059;28;19920;-80
2022/09/19 10:35:05;;;;;;;;;;;;;;;;;;5088298;28;20002;-77
2022/09/19 10:37:31;;;;;;;;;;;;;;;;;;5054363;28;20029;-76
2022/09/19 10:40:00;;;;;;;;;;;;;;;;;;5066377;28;19979;-74
2022/09/19 10:42:30;;;;;;;;;;;;;;;;;;5084164;28;19924;-75
2022/09/19 10:44:57;;;;;;;;;;;;;;;;;;5079822;28;19916;-74
2022/09/19 10:47:22;;;;;;;;;;;;;;;;;;5091455;28;19927;-77
2022/09/19 10:49:47;;;;;;;;;;;;;;;;;;5080274;28;19916;-76
2022/09/19 10:52:22;;;;;;;;;;;;;;;;;;5089318;28;19916;-75
2022/09/19 10:54:48;;;;;;;;;;;;;;;;;;5071847;28;20348;-76
2022/09/19 10:57:34;;;;;;;;;;;;;;;;;;5073939;28;19963;-76
2022/09/19 11:00:02;;;;;;;;;;;;;;;;;;5086646;28;19916;-76
2022/09/19 11:02:27;;;;;;;;;;;;;;;;;;5067131;28;19942;-77
2022/09/19 11:04:59;;;;;;;;;;;;;;;;;;5087849;28;19924;-76
2022/09/19 11:07:27;;;;;;;;;;;;;;;;;;5092927;28;19919;-76
2022/09/19 11:09:59;;;;;;;;;;;;;;;;;;5090403;28;19993;-77
2022/09/19 11:12:24;;;;;;;;;;;;;;;;;;5094049;28;19924;-77
2022/09/19 11:14:49;;;;;;;;;;;;;;;;;;5072806;28;19920;-77
2022/09/19 11:17:34;;;;;;;;;;;;;;;;;;5070090;28;20477;-77
2022/09/19 11:20:19;;;;;;;;;;;;;;;;;;5092489;28;19928;-76
2022/09/19 11:23:10;;;;;;;;;;;;;;;;;;5099077;28;19920;-75
2022/09/19 11:25:58;;;;;;;;;;;;;;;;;;5055806;28;19920;-77
2022/09/19 11:28:45;;;;;;;;;;;;;;;;;;5089190;28;20287;-76
2022/09/19 11:31:14;;;;;;;;;;;;;;;;;;5087285;28;19981;-77
2022/09/19 11:33:39;;;;;;;;;;;;;;;;;;5076533;28;20303;-80
2022/09/19 11:36:08;;;;;;;;;;;;;;;;;;5089046;28;19928;-78
2022/09/19 11:38:36;;;;;;;;;;;;;;;;;;5086621;28;19916;-78
2022/09/19 11:41:02;;;;;;;;;;;;;;;;;;5068914;28;19916;-78
2022/09/19 11:43:34;;;;;;;;;;;;;;;;;;5086597;28;20477;-79
2022/09/19 11:46:03;;;;;;;;;;;;;;;;;;5070006;28;19916;-78
2022/09/19 11:48:49;;;;;;;;;;;;;;;;;;5089850;28;19926;-77
2022/09/19 11:51:26;;;;;;;;;;;;;;;;;;5072740;28;19927;-79
2022/09/19 11:54:01;;;;;;;;;;;;;;;;;;5054491;28;20000;-79
2022/09/19 11:56:42;;;;;;;;;;;;;;;;;;5088073;28;19973;-79
2022/09/19 11:59:17;;;;;;;;;;;;;;;;;;5087542;28;20020;-79
2022/09/19 12:01:55;;;;;;;;;;;;;;;;;;5070044;28;20220;-78
2022/09/19 12:04:42;;;;;;;;;;;;;;;;;;5088429;28;19927;-79
2022/09/19 12:07:11;;;;;;;;;;;;;;;;;;5087024;28;19923;-78
2022/09/19 12:09:44;;;;;;;;;;;;;;;;;;5072186;28;20310;-78
2022/09/19 12:12:16;;;;;;;;;;;;;;;;;;5077824;28;19939;-78
2022/09/19 12:14:43;;;;;;;;;;;;;;;;;;5097799;28;19950;-79
2022/09/19 12:17:10;;;;;;;;;;;;;;;;;;5097594;28;20302;-79
2022/09/19 12:19:40;;;;;;;;;;;;;;;;;;5097170;28;20016;-79
2022/09/19 12:22:15;;;;;;;;;;;;;;;;;;5096606;28;19916;-79
2022/09/19 12:24:53;;;;;;;;;;;;;;;;;;5078268;28;19923;-78
2022/09/19 12:27:37;;;;;;;;;;;;;;;;;;5095552;28;19916;-79
2022/09/19 12:30:05;;;;;;;;;;;;;;;;;;5097107;28;19917;-79
2022/09/19 12:32:40;;;;;;;;;;;;;;;;;;5096754;28;19916;-78
2022/09/19 12:35:13;;;;;;;;;;;;;;;;;;5096855;28;19951;-78
2022/09/19 12:37:44;;;;;;;;;;;;;;;;;;5096503;28;19924;-79
2022/09/19 12:40:09;;;;;;;;;;;;;;;;;;5097486;28;20314;-79
2022/09/19 12:42:45;;;;;;;;;;;;;;;;;;5097726;28;19923;-78
2022/09/19 12:45:20;;;;;;;;;;;;;;;;;;5097706;28;20390;-78
2022/09/19 12:48:01;;;;;;;;;;;;;;;;;;5096505;28;19923;-79
2022/09/19 12:50:33;;;;;;;;;;;;;;;;;;5097657;28;19916;-80
2022/09/19 12:53:37;;;;;;;;;;;;;;;;;;5079423;28;19922;-79
2022/09/19 12:56:07;;;;;;;;;;;;;;;;;;5035066;28;20365;-80
2022/09/19 12:58:34;;;;;;;;;;;;;;;;;;5018626;28;19917;-79
2022/09/19 13:01:12;;;;;;;;;;;;;;;;;;5049121;28;20007;-79
2022/09/19 13:03:38;;;;;;;;;;;;;;;;;;5079352;28;19924;-79
2022/09/19 13:06:08;;;;;;;;;;;;;;;;;;5095917;28;19916;-79
2022/09/19 13:08:47;;;;;;;;;;;;;;;;;;5095677;28;19923;-80
2022/09/19 13:11:13;;;;;;;;;;;;;;;;;;5079181;28;19925;-80
2022/09/19 13:13:47;;;;;;;;;;;;;;;;;;5078956;28;20194;-79
2022/09/19 13:16:16;;;;;;;;;;;;;;;;;;5083004;28;19916;-79
2022/09/19 13:24:12;;;;;;;;;;;;;;;;;;5094543;28;19972;-80
2022/09/19 13:26:38;;;;;;;;;;;;;;;;;;5095695;28;19916;-80
2022/09/19 13:29:18;;;;;;;;;;;;;;;;;;5078929;28;19912;-80
2022/09/19 13:31:52;;;;;;;;;;;;;;;;;;5078967;28;19916;-80
2022/09/19 13:34:35;;;;;;;;;;;;;;;;;;5096561;28;20344;-79
2022/09/19 13:37:04;;;;;;;;;;;;;;;;;;5095115;28;20010;-79
2022/09/19 13:39:49;;;;;;;;;;;;;;;;;;5095377;28;19912;-80
2022/09/19 13:42:35;;;;;;;;;;;;;;;;;;5096441;28;19923;-80
2022/09/19 13:45:13;;;;;;;;;;;;;;;;;;5085554;28;20317;-81
2022/09/19 13:47:39;;;;;;;;;;;;;;;;;;5078400;28;19924;-79
2022/09/19 13:50:14;;;;;;;;;;;;;;;;;;5095004;28;19916;-78
2022/09/19 13:52:45;;;;;;;;;;;;;;;;;;5096058;28;19957;-79
2022/09/19 13:55:14;;;;;;;;;;;;;;;;;;5095094;28;19916;-79
2022/09/19 13:57:41;;;;;;;;;;;;;;;;;;5096253;28;19927;-79
2022/09/19 14:00:14;;;;;;;;;;;;;;;;;;5078166;28;20012;-79
2022/09/19 14:02:40;;;;;;;;;;;;;;;;;;5095163;28;19986;-78
2022/09/19 14:05:15;;;;;;;;;;;;;;;;;;5094483;28;19934;-79
2022/09/19 14:07:47;;;;;;;;;;;;;;;;;;5094961;28;19916;-79
2022/09/19 14:10:12;;;;;;;;;;;;;;;;;;5095878;28;19996;-78
2022/09/19 14:12:45;;;;;;;;;;;;;;;;;;5096075;28;19962;-79
2022/09/19 14:15:32;;;;;;;;;;;;;;;;;;5095860;28;20317;-80
2022/09/19 14:18:02;;;;;;;;;;;;;;;;;;5085304;28;20310;-80
2022/09/19 14:20:46;;;;;;;;;;;;;;;;;;5077226;28;19950;-79
2022/09/19 14:23:11;;;;;;;;;;;;;;;;;;5095784;28;19916;-79
2022/09/19 14:25:36;;;;;;;;;;;;;;;;;;5077539;28;19923;-80
2022/09/19 14:28:05;;;;;;;;;;;;;;;;;;5095648;28;19923;-80
2022/09/19 14:30:40;;;;;;;;;;;;;;;;;;5077691;28;19916;-80
2022/09/19 14:33:08;;;;;;;;;;;;;;;;;;5095508;28;20324;-80
2022/09/19 14:35:44;;;;;;;;;;;;;;;;;;5095158;28;19915;-78
2022/09/19 14:38:10;;;;;;;;;;;;;;;;;;5094435;28;19923;-80
2022/09/19 14:40:36;;;;;;;;;;;;;;;;;;5095436;28;20003;-79
2022/09/19 14:43:11;;;;;;;;;;;;;;;;;;5095439;28;20334;-79
2022/09/19 14:45:40;;;;;;;;;;;;;;;;;;5077027;28;19916;-79
2022/09/19 14:48:15;;;;;;;;;;;;;;;;;;5095718;28;19920;-79
2022/09/19 14:50:43;;;;;;;;;;;;;;;;;;5095280;28;20291;-80
2022/09/19 14:53:13;;;;;;;;;;;;;;;;;;5094329;28;19965;-80
2022/09/19 14:55:42;;;;;;;;;;;;;;;;;;5095241;28;19916;-80
2022/09/19 14:58:26;;;;;;;;;;;;;;;;;;5093954;28;19997;-79
2022/09/19 15:01:06;;;;;;;;;;;;;;;;;;5095115;28;19949;-80
2022/09/19 15:03:42;;;;;;;;;;;;;;;;;;5094994;28;19969;-79
2022/09/19 15:06:26;;;;;;;;;;;;;;;;;;5093712;28;20015;-79
2022/09/19 15:08:51;;;;;;;;;;;;;;;;;;5077123;28;20006;-78
2022/09/19 15:11:19;;;;;;;;;;;;;;;;;;5076821;28;19970;-79
2022/09/19 15:13:47;;;;;;;;;;;;;;;;;;5093678;28;19973;-81
2022/09/19 15:16:13;;;;;;;;;;;;;;;;;;5076996;28;19919;-79
2022/09/19 15:18:40;;;;;;;;;;;;;;;;;;5076725;28;19916;-81
2022/09/19 15:21:06;;;;;;;;;;;;;;;;;;5077139;28;19962;-80
2022/09/19 15:23:32;;;;;;;;;;;;;;;;;;5077108;28;19947;-80
2022/09/19 15:26:01;;;;;;;;;;;;;;;;;;5093488;28;20020;-80
2022/09/19 15:28:28;;;;;;;;;;;;;;;;;;5093526;28;20010;-80
2022/09/19 15:30:58;;;;;;;;;;;;;;;;;;5076804;28;20272;-80
2022/09/19 15:33:25;;;;;;;;;;;;;;;;;;5076789;28;19916;-81
2022/09/19 15:35:50;;;;;;;;;;;;;;;;;;5093394;28;20331;-81
2022/09/19 15:38:25;;;;;;;;;;;;;;;;;;5093466;28;19920;-80
2022/09/19 15:40:50;;;;;;;;;;;;;;;;;;5093382;28;19917;-80
2022/09/19 15:43:16;;;;;;;;;;;;;;;;;;5094617;28;19916;-80
2022/09/19 15:45:50;;;;;;;;;;;;;;;;;;5076654;28;19916;-80
2022/09/19 15:48:20;;;;;;;;;;;;;;;;;;5097829;28;19920;-80
2022/09/19 15:50:47;;;;;;;;;;;;;;;;;;5080804;28;19916;-80
2022/09/19 15:53:14;;;;;;;;;;;;;;;;;;5097700;28;19965;-80
2022/09/19 15:55:41;;;;;;;;;;;;;;;;;;5097444;28;19951;-80
2022/09/19 15:58:13;;;;;;;;;;;;;;;;;;5080650;28;19971;-80
2022/09/19 16:00:43;;;;;;;;;;;;;;;;;;5097361;28;19938;-80
2022/09/19 16:03:17;;;;;;;;;;;;;;;;;;5097138;28;19916;-79
2022/09/19 16:05:42;;;;;;;;;;;;;;;;;;5097780;28;19923;-79
2022/09/19 16:11:23;;;;;;;;;;;;;;;;;;5097164;28;19927;-79
2022/09/19 16:13:49;;;;;;;;;;;;;;;;;;5098632;28;19978;-79
2022/09/19 16:16:26;;;;;;;;;;;;;;;;;;5096774;28;19923;-80
2022/09/19 16:18:51;;;;;;;;;;;;;;;;;;5098451;28;19916;-79
2022/09/19 16:21:17;;;;;;;;;;;;;;;;;;5080232;28;19954;-80
2022/09/19 16:23:43;;;;;;;;;;;;;;;;;;5096893;28;20253;-80
2022/09/19 16:26:09;;;;;;;;;;;;;;;;;;5098018;28;19927;-80
2022/09/19 16:28:35;;;;;;;;;;;;;;;;;;5098511;28;19920;-81
2022/09/19 16:31:01;;;;;;;;;;;;;;;;;;5097698;28;20344;-80
2022/09/19 16:33:30;;;;;;;;;;;;;;;;;;5098261;28;19994;-80
2022/09/19 16:35:56;;;;;;;;;;;;;;;;;;5096971;28;19915;-79
2022/09/19 16:38:25;;;;;;;;;;;;;;;;;;5079967;28;20031;-79
2022/09/19 16:40:57;;;;;;;;;;;;;;;;;;5079648;28;20226;-80
2022/09/19 16:43:39;;;;;;;;;;;;;;;;;;5080181;28;20234;-80
2022/09/19 16:46:11;;;;;;;;;;;;;;;;;;5097412;28;19916;-80
2022/09/19 16:48:36;;;;;;;;;;;;;;;;;;5096569;28;19916;-79
2022/09/19 16:51:02;;;;;;;;;;;;;;;;;;5079735;28;19922;-80
2022/09/19 16:53:28;;;;;;;;;;;;;;;;;;5097704;28;20011;-80
2022/09/19 16:55:53;;;;;;;;;;;;;;;;;;5079578;28;19938;-79
2022/09/19 16:58:19;;;;;;;;;;;;;;;;;;5097278;28;19980;-81
2022/09/19 17:00:44;;;;;;;;;;;;;;;;;;5096536;28;19916;-80
2022/09/19 17:03:10;;;;;;;;;;;;;;;;;;5097375;28;19998;-79
2022/09/19 17:05:35;;;;;;;;;;;;;;;;;;5096611;28;19954;-80
2022/09/19 17:08:01;;;;;;;;;;;;;;;;;;5096441;28;20322;-80
2022/09/19 17:10:27;;;;;;;;;;;;;;;;;;5079262;28;20321;-80
2022/09/19 17:12:52;;;;;;;;;;;;;;;;;;5096090;28;20327;-80
2022/09/19 17:15:18;;;;;;;;;;;;;;;;;;5095681;28;19916;-79
2022/09/19 17:17:43;;;;;;;;;;;;;;;;;;5097489;28;20329;-80
2022/09/19 17:20:09;;;;;;;;;;;;;;;;;;5097124;28;19939;-80
2022/09/19 17:22:35;;;;;;;;;;;;;;;;;;5079231;28;19920;-79
2022/09/19 17:25:00;;;;;;;;;;;;;;;;;;5079082;28;19989;-80
2022/09/19 17:27:25;;;;;;;;;;;;;;;;;;5095905;28;20306;-79
2022/09/19 17:29:51;;;;;;;;;;;;;;;;;;5078563;28;19912;-79
2022/09/19 17:32:18;;;;;;;;;;;;;;;;;;5078793;28;19954;-79
2022/09/19 17:34:43;;;;;;;;;;;;;;;;;;5096133;28;19939;-80
2022/09/19 17:37:09;;;;;;;;;;;;;;;;;;5078492;28;20278;-79
2022/09/19 17:39:34;;;;;;;;;;;;;;;;;;5096670;28;19923;-78
2022/09/19 17:41:59;;;;;;;;;;;;;;;;;;5078755;28;20240;-80
2022/09/19 17:44:25;;;;;;;;;;;;;;;;;;5096636;28;20333;-78
2022/09/19 17:46:50;;;;;;;;;;;;;;;;;;5078603;28;19920;-80
2022/09/19 17:49:16;;;;;;;;;;;;;;;;;;5096513;28;20344;-78
2022/09/19 17:51:41;;;;;;;;;;;;;;;;;;5078623;28;20007;-79
2022/09/19 17:54:06;;;;;;;;;;;;;;;;;;5095455;28;19916;-79